sensor_id;sensor_type;location;lat;lon;timestamp;temperature;humidity
909;DHT22;441;51.192;6.788;2023-04-29T00:00:13;20.60;59.10
909;DHT22;441;51.192;6.788;2023-04-29T00:02:40;20.70;59.20
909;DHT22;441;51.192;6.788;2023-04-29T00:05:08;20.60;59.30
909;DHT22;441;51.192;6.788;2023-04-29T00:07:36;20.60;59.40
909;DHT22;441;51.192;6.788;2023-04-29T00:10:04;20.60;59.40
909;DHT22;441;51.192;6.788;2023-04-29T00:12:31;20.50;59.40
909;DHT22;441;51.192;6.788;2023-04-29T00:14:58;20.50;59.50
909;DHT22;441;51.192;6.788;2023-04-29T00:17:25;20.50;59.60
909;DHT22;441;51.192;6.788;2023-04-29T00:19:52;20.40;59.60
909;DHT22;441;51.192;6.788;2023-04-29T00:22:19;20.50;59.70
909;DHT22;441;51.192;6.788;2023-04-29T00:24:47;20.40;59.70
909;DHT22;441;51.192;6.788;2023-04-29T00:27:15;20.40;59.70
909;DHT22;441;51.192;6.788;2023-04-29T00:29:42;20.40;59.80
909;DHT22;441;51.192;6.788;2023-04-29T00:32:09;20.40;59.80
909;DHT22;441;51.192;6.788;2023-04-29T00:34:36;20.30;59.90
909;DHT22;441;51.192;6.788;2023-04-29T00:37:03;20.30;60.00
909;DHT22;441;51.192;6.788;2023-04-29T00:39:30;20.30;60.10
909;DHT22;441;51.192;6.788;2023-04-29T00:41:58;20.30;60.10
909;DHT22;441;51.192;6.788;2023-04-29T00:44:27;20.30;60.20
909;DHT22;441;51.192;6.788;2023-04-29T00:46:54;20.30;60.30
909;DHT22;441;51.192;6.788;2023-04-29T00:49:21;20.30;60.40
909;DHT22;441;51.192;6.788;2023-04-29T00:51:49;20.20;61.10
909;DHT22;441;51.192;6.788;2023-04-29T00:54:16;20.20;60.40
909;DHT22;441;51.192;6.788;2023-04-29T00:56:45;20.20;60.60
909;DHT22;441;51.192;6.788;2023-04-29T00:59:13;20.20;60.60
909;DHT22;441;51.192;6.788;2023-04-29T01:01:41;20.20;60.60
909;DHT22;441;51.192;6.788;2023-04-29T01:04:09;20.20;60.60
909;DHT22;441;51.192;6.788;2023-04-29T01:06:55;20.20;60.60
909;DHT22;441;51.192;6.788;2023-04-29T01:09:36;20.20;60.60
909;DHT22;441;51.192;6.788;2023-04-29T01:12:10;20.20;60.50
909;DHT22;441;51.192;6.788;2023-04-29T01:14:42;20.30;60.70
909;DHT22;441;51.192;6.788;2023-04-29T01:17:18;20.20;60.50
909;DHT22;441;51.192;6.788;2023-04-29T01:19:49;20.20;60.60
909;DHT22;441;51.192;6.788;2023-04-29T01:22:18;20.20;60.70
909;DHT22;441;51.192;6.788;2023-04-29T01:24:47;20.20;60.70
909;DHT22;441;51.192;6.788;2023-04-29T01:27:22;20.20;60.60
909;DHT22;441;51.192;6.788;2023-04-29T01:29:57;20.20;60.80
909;DHT22;441;51.192;6.788;2023-04-29T01:32:34;20.20;60.80
909;DHT22;441;51.192;6.788;2023-04-29T01:35:10;20.20;60.80
909;DHT22;441;51.192;6.788;2023-04-29T01:37:48;20.20;60.90
909;DHT22;441;51.192;6.788;2023-04-29T01:40:24;20.20;61.00
909;DHT22;441;51.192;6.788;2023-04-29T01:43:00;20.20;61.00
909;DHT22;441;51.192;6.788;2023-04-29T01:45:28;20.10;60.90
909;DHT22;441;51.192;6.788;2023-04-29T01:47:57;20.20;61.20
909;DHT22;441;51.192;6.788;2023-04-29T01:50:24;20.20;61.10
909;DHT22;441;51.192;6.788;2023-04-29T01:52:51;20.10;61.00
909;DHT22;441;51.192;6.788;2023-04-29T01:55:20;20.10;61.10
909;DHT22;441;51.192;6.788;2023-04-29T01:57:47;20.10;61.20
909;DHT22;441;51.192;6.788;2023-04-29T02:00:14;20.10;61.20
909;DHT22;441;51.192;6.788;2023-04-29T02:02:41;20.10;61.20
909;DHT22;441;51.192;6.788;2023-04-29T02:05:08;20.10;61.20
909;DHT22;441;51.192;6.788;2023-04-29T02:07:35;20.10;61.40
909;DHT22;441;51.192;6.788;2023-04-29T02:10:03;20.10;61.30
909;DHT22;441;51.192;6.788;2023-04-29T02:12:31;20.10;61.50
909;DHT22;441;51.192;6.788;2023-04-29T02:14:59;20.10;61.40
909;DHT22;441;51.192;6.788;2023-04-29T02:17:26;20.00;61.30
909;DHT22;441;51.192;6.788;2023-04-29T02:19:53;20.10;61.50
909;DHT22;441;51.192;6.788;2023-04-29T02:22:20;20.10;61.50
909;DHT22;441;51.192;6.788;2023-04-29T02:24:47;20.00;61.50
909;DHT22;441;51.192;6.788;2023-04-29T02:27:14;20.00;61.60
909;DHT22;441;51.192;6.788;2023-04-29T02:29:42;20.00;61.60
909;DHT22;441;51.192;6.788;2023-04-29T02:32:09;20.00;61.70
909;DHT22;441;51.192;6.788;2023-04-29T02:34:36;20.00;61.70
909;DHT22;441;51.192;6.788;2023-04-29T02:37:03;20.00;61.80
909;DHT22;441;51.192;6.788;2023-04-29T02:39:30;20.00;61.80
909;DHT22;441;51.192;6.788;2023-04-29T02:41:57;20.00;61.80
909;DHT22;441;51.192;6.788;2023-04-29T02:44:24;20.00;61.90
909;DHT22;441;51.192;6.788;2023-04-29T02:46:52;20.00;61.80
909;DHT22;441;51.192;6.788;2023-04-29T02:49:19;20.00;61.80
909;DHT22;441;51.192;6.788;2023-04-29T02:51:46;20.00;61.80
909;DHT22;441;51.192;6.788;2023-04-29T02:54:14;19.90;61.80
909;DHT22;441;51.192;6.788;2023-04-29T02:56:42;19.90;62.00
909;DHT22;441;51.192;6.788;2023-04-29T02:59:09;19.90;62.00
909;DHT22;441;51.192;6.788;2023-04-29T03:01:36;19.90;62.00
909;DHT22;441;51.192;6.788;2023-04-29T03:04:05;19.90;62.10
909;DHT22;441;51.192;6.788;2023-04-29T03:06:32;19.90;62.10
909;DHT22;441;51.192;6.788;2023-04-29T03:08:59;19.90;62.10
909;DHT22;441;51.192;6.788;2023-04-29T03:11:26;19.90;62.20
909;DHT22;441;51.192;6.788;2023-04-29T03:13:53;19.90;62.30
909;DHT22;441;51.192;6.788;2023-04-29T03:16:20;19.80;62.20
909;DHT22;441;51.192;6.788;2023-04-29T03:18:47;19.90;62.30
909;DHT22;441;51.192;6.788;2023-04-29T03:21:16;19.90;62.30
909;DHT22;441;51.192;6.788;2023-04-29T03:23:43;19.90;62.20
909;DHT22;441;51.192;6.788;2023-04-29T03:26:10;19.90;62.10
909;DHT22;441;51.192;6.788;2023-04-29T03:28:37;19.90;62.00
909;DHT22;441;51.192;6.788;2023-04-29T03:31:04;19.90;62.20
909;DHT22;441;51.192;6.788;2023-04-29T03:33:31;19.90;62.20
909;DHT22;441;51.192;6.788;2023-04-29T03:35:57;19.90;62.10
909;DHT22;441;51.192;6.788;2023-04-29T03:38:26;19.90;62.30
909;DHT22;441;51.192;6.788;2023-04-29T03:40:52;19.90;62.30
909;DHT22;441;51.192;6.788;2023-04-29T03:43:20;19.90;62.30
909;DHT22;441;51.192;6.788;2023-04-29T03:45:46;19.80;62.20
909;DHT22;441;51.192;6.788;2023-04-29T03:48:13;19.90;62.10
909;DHT22;441;51.192;6.788;2023-04-29T03:50:40;19.80;62.20
909;DHT22;441;51.192;6.788;2023-04-29T03:53:07;19.90;62.30
909;DHT22;441;51.192;6.788;2023-04-29T03:55:35;19.80;62.30
909;DHT22;441;51.192;6.788;2023-04-29T03:58:02;19.80;62.30
909;DHT22;441;51.192;6.788;2023-04-29T04:00:30;19.80;62.40
909;DHT22;441;51.192;6.788;2023-04-29T04:02:57;19.80;62.40
909;DHT22;441;51.192;6.788;2023-04-29T04:05:24;19.80;62.30
909;DHT22;441;51.192;6.788;2023-04-29T04:07:51;19.90;62.40
909;DHT22;441;51.192;6.788;2023-04-29T04:10:18;19.80;62.30
909;DHT22;441;51.192;6.788;2023-04-29T04:12:46;19.80;62.30
909;DHT22;441;51.192;6.788;2023-04-29T04:15:13;19.80;62.30
909;DHT22;441;51.192;6.788;2023-04-29T04:17:41;19.80;62.30
909;DHT22;441;51.192;6.788;2023-04-29T04:20:09;19.90;62.50
909;DHT22;441;51.192;6.788;2023-04-29T04:22:36;19.80;62.60
909;DHT22;441;51.192;6.788;2023-04-29T04:25:04;19.80;62.50
909;DHT22;441;51.192;6.788;2023-04-29T04:27:31;19.80;62.70
909;DHT22;441;51.192;6.788;2023-04-29T04:29:59;19.80;62.60
909;DHT22;441;51.192;6.788;2023-04-29T04:32:26;19.80;62.70
909;DHT22;441;51.192;6.788;2023-04-29T04:34:53;19.80;62.70
909;DHT22;441;51.192;6.788;2023-04-29T04:37:20;19.80;62.70
909;DHT22;441;51.192;6.788;2023-04-29T04:39:47;19.80;62.70
909;DHT22;441;51.192;6.788;2023-04-29T04:42:14;19.80;62.60
909;DHT22;441;51.192;6.788;2023-04-29T04:44:41;19.80;62.60
909;DHT22;441;51.192;6.788;2023-04-29T04:47:09;19.80;62.60
909;DHT22;441;51.192;6.788;2023-04-29T04:49:37;19.80;62.70
909;DHT22;441;51.192;6.788;2023-04-29T04:52:03;19.70;62.50
909;DHT22;441;51.192;6.788;2023-04-29T04:54:31;19.80;62.60
909;DHT22;441;51.192;6.788;2023-04-29T04:56:57;19.80;63.20
909;DHT22;441;51.192;6.788;2023-04-29T04:59:24;19.80;63.80
909;DHT22;441;51.192;6.788;2023-04-29T05:01:51;19.80;64.00
909;DHT22;441;51.192;6.788;2023-04-29T05:04:19;19.90;64.10
909;DHT22;441;51.192;6.788;2023-04-29T05:06:46;19.90;64.10
909;DHT22;441;51.192;6.788;2023-04-29T05:09:13;19.90;63.90
909;DHT22;441;51.192;6.788;2023-04-29T05:11:41;20.00;63.90
909;DHT22;441;51.192;6.788;2023-04-29T05:14:08;20.00;63.70
909;DHT22;441;51.192;6.788;2023-04-29T05:16:35;20.00;63.60
909;DHT22;441;51.192;6.788;2023-04-29T05:19:02;20.10;64.60
909;DHT22;441;51.192;6.788;2023-04-29T05:21:31;20.20;64.30
909;DHT22;441;51.192;6.788;2023-04-29T05:23:58;20.20;63.70
909;DHT22;441;51.192;6.788;2023-04-29T05:26:25;20.30;63.60
909;DHT22;441;51.192;6.788;2023-04-29T05:28:52;20.30;64.10
909;DHT22;441;51.192;6.788;2023-04-29T05:31:20;20.30;64.20
909;DHT22;441;51.192;6.788;2023-04-29T05:33:47;20.30;64.20
909;DHT22;441;51.192;6.788;2023-04-29T05:36:14;20.40;64.30
909;DHT22;441;51.192;6.788;2023-04-29T05:38:43;20.50;63.90
909;DHT22;441;51.192;6.788;2023-04-29T05:41:10;20.50;63.90
909;DHT22;441;51.192;6.788;2023-04-29T05:43:38;20.50;63.80
909;DHT22;441;51.192;6.788;2023-04-29T05:46:05;20.60;63.60
909;DHT22;441;51.192;6.788;2023-04-29T05:48:32;20.60;63.50
909;DHT22;441;51.192;6.788;2023-04-29T05:50:59;20.60;63.30
909;DHT22;441;51.192;6.788;2023-04-29T05:53:26;20.70;63.30
909;DHT22;441;51.192;6.788;2023-04-29T05:55:54;20.60;62.70
909;DHT22;441;51.192;6.788;2023-04-29T05:58:21;20.60;62.90
909;DHT22;441;51.192;6.788;2023-04-29T06:00:50;20.70;63.20
909;DHT22;441;51.192;6.788;2023-04-29T06:03:17;20.80;62.30
909;DHT22;441;51.192;6.788;2023-04-29T06:05:44;20.80;62.00
909;DHT22;441;51.192;6.788;2023-04-29T06:08:11;20.80;61.60
909;DHT22;441;51.192;6.788;2023-04-29T06:10:38;20.80;61.50
909;DHT22;441;51.192;6.788;2023-04-29T06:13:06;20.80;61.30
909;DHT22;441;51.192;6.788;2023-04-29T06:15:33;20.80;61.30
909;DHT22;441;51.192;6.788;2023-04-29T06:18:00;20.80;61.50
909;DHT22;441;51.192;6.788;2023-04-29T06:20:27;20.90;62.20
909;DHT22;441;51.192;6.788;2023-04-29T06:22:54;20.90;63.10
909;DHT22;441;51.192;6.788;2023-04-29T06:25:21;20.90;65.40
909;DHT22;441;51.192;6.788;2023-04-29T06:27:48;20.80;73.60
909;DHT22;441;51.192;6.788;2023-04-29T06:30:16;20.80;73.00
909;DHT22;441;51.192;6.788;2023-04-29T06:32:43;20.80;73.20
909;DHT22;441;51.192;6.788;2023-04-29T06:35:10;20.80;74.40
909;DHT22;441;51.192;6.788;2023-04-29T06:37:37;20.80;73.60
909;DHT22;441;51.192;6.788;2023-04-29T06:40:05;20.80;73.80
909;DHT22;441;51.192;6.788;2023-04-29T06:42:32;20.80;75.10
909;DHT22;441;51.192;6.788;2023-04-29T06:44:59;20.80;74.90
909;DHT22;441;51.192;6.788;2023-04-29T06:47:27;20.80;74.50
909;DHT22;441;51.192;6.788;2023-04-29T06:49:54;20.80;73.40
909;DHT22;441;51.192;6.788;2023-04-29T06:52:21;20.80;72.30
909;DHT22;441;51.192;6.788;2023-04-29T06:54:48;20.80;71.40
909;DHT22;441;51.192;6.788;2023-04-29T06:57:15;20.70;70.80
909;DHT22;441;51.192;6.788;2023-04-29T06:59:41;20.60;70.40
909;DHT22;441;51.192;6.788;2023-04-29T07:02:08;20.60;70.10
909;DHT22;441;51.192;6.788;2023-04-29T07:04:37;20.60;69.90
909;DHT22;441;51.192;6.788;2023-04-29T07:07:04;20.50;69.50
909;DHT22;441;51.192;6.788;2023-04-29T07:09:31;20.50;69.40
909;DHT22;441;51.192;6.788;2023-04-29T07:11:59;20.50;69.10
909;DHT22;441;51.192;6.788;2023-04-29T07:14:29;20.40;68.80
909;DHT22;441;51.192;6.788;2023-04-29T07:16:56;20.40;68.70
909;DHT22;441;51.192;6.788;2023-04-29T07:19:23;20.30;68.40
909;DHT22;441;51.192;6.788;2023-04-29T07:21:51;20.30;68.20
909;DHT22;441;51.192;6.788;2023-04-29T07:24:18;20.30;68.10
909;DHT22;441;51.192;6.788;2023-04-29T07:26:45;20.20;67.90
909;DHT22;441;51.192;6.788;2023-04-29T07:29:12;20.20;68.50
909;DHT22;441;51.192;6.788;2023-04-29T07:31:39;20.20;67.70
909;DHT22;441;51.192;6.788;2023-04-29T07:34:06;20.20;67.60
909;DHT22;441;51.192;6.788;2023-04-29T07:36:32;20.20;67.50
909;DHT22;441;51.192;6.788;2023-04-29T07:39:01;20.10;67.40
909;DHT22;441;51.192;6.788;2023-04-29T07:41:29;20.10;67.30
909;DHT22;441;51.192;6.788;2023-04-29T07:43:56;20.10;67.20
909;DHT22;441;51.192;6.788;2023-04-29T07:46:23;20.10;67.10
909;DHT22;441;51.192;6.788;2023-04-29T07:48:49;20.00;66.90
909;DHT22;441;51.192;6.788;2023-04-29T07:51:17;20.00;66.80
909;DHT22;441;51.192;6.788;2023-04-29T07:53:44;20.00;66.70
909;DHT22;441;51.192;6.788;2023-04-29T07:56:12;20.00;66.50
909;DHT22;441;51.192;6.788;2023-04-29T07:58:39;20.00;66.50
909;DHT22;441;51.192;6.788;2023-04-29T08:01:06;20.00;66.40
909;DHT22;441;51.192;6.788;2023-04-29T08:03:33;20.00;66.30
909;DHT22;441;51.192;6.788;2023-04-29T08:06:01;20.00;66.30
909;DHT22;441;51.192;6.788;2023-04-29T08:08:28;20.00;66.20
909;DHT22;441;51.192;6.788;2023-04-29T08:10:55;20.00;66.00
909;DHT22;441;51.192;6.788;2023-04-29T08:13:23;20.00;65.80
909;DHT22;441;51.192;6.788;2023-04-29T08:15:50;20.00;65.60
909;DHT22;441;51.192;6.788;2023-04-29T08:18:18;20.00;65.40
909;DHT22;441;51.192;6.788;2023-04-29T08:20:46;20.00;65.30
909;DHT22;441;51.192;6.788;2023-04-29T08:23:13;20.00;65.20
909;DHT22;441;51.192;6.788;2023-04-29T08:25:41;20.00;65.10
909;DHT22;441;51.192;6.788;2023-04-29T08:28:09;20.00;65.00
909;DHT22;441;51.192;6.788;2023-04-29T08:30:39;20.00;65.00
909;DHT22;441;51.192;6.788;2023-04-29T08:33:06;20.00;64.90
909;DHT22;441;51.192;6.788;2023-04-29T08:35:33;20.00;64.80
909;DHT22;441;51.192;6.788;2023-04-29T08:38:02;20.00;64.80
909;DHT22;441;51.192;6.788;2023-04-29T08:40:32;20.00;64.70
909;DHT22;441;51.192;6.788;2023-04-29T08:43:00;20.00;64.60
909;DHT22;441;51.192;6.788;2023-04-29T08:45:28;20.00;64.50
909;DHT22;441;51.192;6.788;2023-04-29T08:47:58;20.00;64.50
909;DHT22;441;51.192;6.788;2023-04-29T08:50:26;20.00;64.50
909;DHT22;441;51.192;6.788;2023-04-29T08:52:54;20.00;64.30
909;DHT22;441;51.192;6.788;2023-04-29T08:55:21;20.00;64.30
909;DHT22;441;51.192;6.788;2023-04-29T08:57:49;19.90;64.10
909;DHT22;441;51.192;6.788;2023-04-29T09:00:16;20.00;64.20
909;DHT22;441;51.192;6.788;2023-04-29T09:02:46;19.90;64.00
909;DHT22;441;51.192;6.788;2023-04-29T09:05:15;19.90;63.90
909;DHT22;441;51.192;6.788;2023-04-29T09:07:43;19.90;64.00
909;DHT22;441;51.192;6.788;2023-04-29T09:10:10;19.90;64.00
909;DHT22;441;51.192;6.788;2023-04-29T09:12:37;19.90;63.90
909;DHT22;441;51.192;6.788;2023-04-29T09:15:05;19.90;63.90
909;DHT22;441;51.192;6.788;2023-04-29T09:17:39;19.90;63.80
909;DHT22;441;51.192;6.788;2023-04-29T09:20:26;19.80;63.70
909;DHT22;441;51.192;6.788;2023-04-29T09:22:55;19.80;63.60
909;DHT22;441;51.192;6.788;2023-04-29T09:25:22;19.80;63.60
909;DHT22;441;51.192;6.788;2023-04-29T09:27:49;19.80;63.60
909;DHT22;441;51.192;6.788;2023-04-29T09:30:16;19.80;63.50
909;DHT22;441;51.192;6.788;2023-04-29T09:32:44;19.80;63.50
909;DHT22;441;51.192;6.788;2023-04-29T09:35:31;19.80;63.50
909;DHT22;441;51.192;6.788;2023-04-29T09:38:11;19.80;63.50
909;DHT22;441;51.192;6.788;2023-04-29T09:40:39;19.80;63.40
909;DHT22;441;51.192;6.788;2023-04-29T09:43:11;19.80;63.40
909;DHT22;441;51.192;6.788;2023-04-29T09:45:40;19.80;63.40
909;DHT22;441;51.192;6.788;2023-04-29T09:48:09;19.70;63.30
909;DHT22;441;51.192;6.788;2023-04-29T09:50:38;19.70;63.20
909;DHT22;441;51.192;6.788;2023-04-29T09:53:08;19.80;63.30
909;DHT22;441;51.192;6.788;2023-04-29T09:55:35;19.70;63.20
909;DHT22;441;51.192;6.788;2023-04-29T09:58:02;19.70;63.20
909;DHT22;441;51.192;6.788;2023-04-29T10:00:31;19.70;63.10
909;DHT22;441;51.192;6.788;2023-04-29T10:03:00;19.70;63.10
909;DHT22;441;51.192;6.788;2023-04-29T10:05:28;19.70;63.00
909;DHT22;441;51.192;6.788;2023-04-29T10:07:58;19.70;63.00
909;DHT22;441;51.192;6.788;2023-04-29T10:10:26;19.70;63.00
909;DHT22;441;51.192;6.788;2023-04-29T10:12:55;19.70;63.00
909;DHT22;441;51.192;6.788;2023-04-29T10:15:28;19.70;62.90
909;DHT22;441;51.192;6.788;2023-04-29T10:17:59;19.70;62.90
909;DHT22;441;51.192;6.788;2023-04-29T10:20:29;19.70;62.90
909;DHT22;441;51.192;6.788;2023-04-29T10:22:58;19.70;62.90
909;DHT22;441;51.192;6.788;2023-04-29T10:25:26;19.70;62.80
909;DHT22;441;51.192;6.788;2023-04-29T10:27:54;19.70;62.80
909;DHT22;441;51.192;6.788;2023-04-29T10:30:21;19.70;62.80
909;DHT22;441;51.192;6.788;2023-04-29T10:32:49;19.70;62.80
909;DHT22;441;51.192;6.788;2023-04-29T10:35:18;19.70;62.80
909;DHT22;441;51.192;6.788;2023-04-29T10:37:47;19.70;62.60
909;DHT22;441;51.192;6.788;2023-04-29T10:40:18;19.70;62.50
909;DHT22;441;51.192;6.788;2023-04-29T10:42:49;19.70;62.40
909;DHT22;441;51.192;6.788;2023-04-29T10:45:23;19.70;62.30
909;DHT22;441;51.192;6.788;2023-04-29T10:48:10;19.70;62.30
909;DHT22;441;51.192;6.788;2023-04-29T10:50:59;19.70;62.20
909;DHT22;441;51.192;6.788;2023-04-29T10:53:27;19.70;62.10
909;DHT22;441;51.192;6.788;2023-04-29T10:55:58;19.70;62.10
909;DHT22;441;51.192;6.788;2023-04-29T10:58:37;19.70;62.10
909;DHT22;441;51.192;6.788;2023-04-29T11:01:06;19.70;62.10
909;DHT22;441;51.192;6.788;2023-04-29T11:03:49;19.70;62.10
909;DHT22;441;51.192;6.788;2023-04-29T11:06:19;19.70;62.00
909;DHT22;441;51.192;6.788;2023-04-29T11:08:58;19.70;61.90
909;DHT22;441;51.192;6.788;2023-04-29T11:11:39;19.70;62.00
909;DHT22;441;51.192;6.788;2023-04-29T11:14:08;19.70;61.90
909;DHT22;441;51.192;6.788;2023-04-29T11:16:35;19.70;61.90
909;DHT22;441;51.192;6.788;2023-04-29T11:19:04;19.70;61.90
909;DHT22;441;51.192;6.788;2023-04-29T11:21:33;19.70;61.90
909;DHT22;441;51.192;6.788;2023-04-29T11:24:00;19.70;61.90
909;DHT22;441;51.192;6.788;2023-04-29T11:26:29;19.70;61.80
909;DHT22;441;51.192;6.788;2023-04-29T11:28:56;19.70;61.80
909;DHT22;441;51.192;6.788;2023-04-29T11:31:29;19.70;61.80
909;DHT22;441;51.192;6.788;2023-04-29T11:33:56;19.70;61.80
909;DHT22;441;51.192;6.788;2023-04-29T11:36:23;19.70;61.80
909;DHT22;441;51.192;6.788;2023-04-29T11:38:50;19.70;61.70
909;DHT22;441;51.192;6.788;2023-04-29T11:41:17;19.70;61.70
909;DHT22;441;51.192;6.788;2023-04-29T11:43:46;19.70;61.60
909;DHT22;441;51.192;6.788;2023-04-29T11:46:13;19.70;61.70
909;DHT22;441;51.192;6.788;2023-04-29T11:48:50;19.70;61.70
909;DHT22;441;51.192;6.788;2023-04-29T11:51:17;19.70;61.70
909;DHT22;441;51.192;6.788;2023-04-29T11:53:45;19.70;61.70
909;DHT22;441;51.192;6.788;2023-04-29T11:56:12;19.70;61.60
909;DHT22;441;51.192;6.788;2023-04-29T11:58:41;19.70;61.70
909;DHT22;441;51.192;6.788;2023-04-29T12:01:10;19.70;61.70
909;DHT22;441;51.192;6.788;2023-04-29T12:03:37;19.70;61.60
909;DHT22;441;51.192;6.788;2023-04-29T12:06:04;19.70;61.60
909;DHT22;441;51.192;6.788;2023-04-29T12:08:31;19.70;61.60
909;DHT22;441;51.192;6.788;2023-04-29T12:10:59;19.70;61.60
909;DHT22;441;51.192;6.788;2023-04-29T12:13:28;19.70;61.60
909;DHT22;441;51.192;6.788;2023-04-29T12:15:57;19.70;61.50
909;DHT22;441;51.192;6.788;2023-04-29T12:18:26;19.70;61.60
909;DHT22;441;51.192;6.788;2023-04-29T12:20:53;19.70;61.60
909;DHT22;441;51.192;6.788;2023-04-29T12:23:22;19.70;61.60
909;DHT22;441;51.192;6.788;2023-04-29T12:25:52;19.70;61.50
909;DHT22;441;51.192;6.788;2023-04-29T12:28:20;19.70;61.50
909;DHT22;441;51.192;6.788;2023-04-29T12:30:48;19.70;61.60
909;DHT22;441;51.192;6.788;2023-04-29T12:33:18;19.70;61.60
909;DHT22;441;51.192;6.788;2023-04-29T12:35:47;19.70;61.60
909;DHT22;441;51.192;6.788;2023-04-29T12:38:19;19.70;61.50
909;DHT22;441;51.192;6.788;2023-04-29T12:40:46;19.70;61.50
909;DHT22;441;51.192;6.788;2023-04-29T12:43:13;19.70;61.50
909;DHT22;441;51.192;6.788;2023-04-29T12:45:40;19.70;61.50
909;DHT22;441;51.192;6.788;2023-04-29T12:48:07;19.70;61.50
909;DHT22;441;51.192;6.788;2023-04-29T12:50:35;19.70;61.40
909;DHT22;441;51.192;6.788;2023-04-29T12:53:05;19.70;61.40
909;DHT22;441;51.192;6.788;2023-04-29T12:55:32;19.70;61.40
909;DHT22;441;51.192;6.788;2023-04-29T12:58:00;19.70;61.40
909;DHT22;441;51.192;6.788;2023-04-29T13:00:26;19.70;61.40
909;DHT22;441;51.192;6.788;2023-04-29T13:02:53;19.70;61.30
909;DHT22;441;51.192;6.788;2023-04-29T13:05:21;19.70;61.30
909;DHT22;441;51.192;6.788;2023-04-29T13:07:48;19.70;61.20
909;DHT22;441;51.192;6.788;2023-04-29T13:10:16;19.70;61.20
909;DHT22;441;51.192;6.788;2023-04-29T13:12:43;19.70;61.10
909;DHT22;441;51.192;6.788;2023-04-29T13:15:10;19.70;61.10
909;DHT22;441;51.192;6.788;2023-04-29T13:17:37;19.70;61.10
909;DHT22;441;51.192;6.788;2023-04-29T13:20:05;19.70;61.00
909;DHT22;441;51.192;6.788;2023-04-29T13:22:32;19.80;61.10
909;DHT22;441;51.192;6.788;2023-04-29T13:24:59;19.70;61.00
909;DHT22;441;51.192;6.788;2023-04-29T13:27:27;19.80;61.10
909;DHT22;441;51.192;6.788;2023-04-29T13:29:54;19.80;61.10
909;DHT22;441;51.192;6.788;2023-04-29T13:32:22;19.80;61.10
909;DHT22;441;51.192;6.788;2023-04-29T13:34:49;19.80;61.10
909;DHT22;441;51.192;6.788;2023-04-29T13:37:16;19.80;61.10
909;DHT22;441;51.192;6.788;2023-04-29T13:39:44;19.80;61.10
909;DHT22;441;51.192;6.788;2023-04-29T13:42:11;19.80;61.10
909;DHT22;441;51.192;6.788;2023-04-29T13:44:39;19.80;61.10
909;DHT22;441;51.192;6.788;2023-04-29T13:47:09;19.80;61.10
909;DHT22;441;51.192;6.788;2023-04-29T13:49:37;19.80;61.10
909;DHT22;441;51.192;6.788;2023-04-29T13:52:04;19.80;61.00
909;DHT22;441;51.192;6.788;2023-04-29T13:54:31;19.80;61.00
909;DHT22;441;51.192;6.788;2023-04-29T13:56:58;19.80;61.00
909;DHT22;441;51.192;6.788;2023-04-29T13:59:25;19.80;61.00
909;DHT22;441;51.192;6.788;2023-04-29T14:01:54;19.80;61.00
909;DHT22;441;51.192;6.788;2023-04-29T14:04:21;19.80;61.00
909;DHT22;441;51.192;6.788;2023-04-29T14:06:48;19.80;61.00
909;DHT22;441;51.192;6.788;2023-04-29T14:09:14;19.80;61.00
909;DHT22;441;51.192;6.788;2023-04-29T14:11:41;19.80;60.90
909;DHT22;441;51.192;6.788;2023-04-29T14:14:08;19.80;60.90
909;DHT22;441;51.192;6.788;2023-04-29T14:16:35;19.80;60.90
909;DHT22;441;51.192;6.788;2023-04-29T14:19:03;19.80;60.90
909;DHT22;441;51.192;6.788;2023-04-29T14:21:30;19.80;60.90
909;DHT22;441;51.192;6.788;2023-04-29T14:23:58;19.80;60.90
909;DHT22;441;51.192;6.788;2023-04-29T14:26:25;19.80;60.90
909;DHT22;441;51.192;6.788;2023-04-29T14:28:53;19.80;60.80
909;DHT22;441;51.192;6.788;2023-04-29T14:31:22;19.80;60.80
909;DHT22;441;51.192;6.788;2023-04-29T14:33:49;19.80;60.80
909;DHT22;441;51.192;6.788;2023-04-29T14:36:18;19.80;60.80
909;DHT22;441;51.192;6.788;2023-04-29T14:38:44;19.80;60.80
909;DHT22;441;51.192;6.788;2023-04-29T14:41:11;19.80;60.80
909;DHT22;441;51.192;6.788;2023-04-29T14:43:38;19.80;60.80
909;DHT22;441;51.192;6.788;2023-04-29T14:46:05;19.80;60.80
909;DHT22;441;51.192;6.788;2023-04-29T14:48:32;19.70;60.70
909;DHT22;441;51.192;6.788;2023-04-29T14:50:59;19.70;60.70
909;DHT22;441;51.192;6.788;2023-04-29T14:53:27;19.80;60.80
909;DHT22;441;51.192;6.788;2023-04-29T14:55:54;19.80;60.80
909;DHT22;441;51.192;6.788;2023-04-29T14:58:21;19.70;60.70
909;DHT22;441;51.192;6.788;2023-04-29T15:00:48;19.70;60.70
909;DHT22;441;51.192;6.788;2023-04-29T15:03:15;19.70;60.60
909;DHT22;441;51.192;6.788;2023-04-29T15:05:42;19.70;60.70
909;DHT22;441;51.192;6.788;2023-04-29T15:08:10;19.70;60.60
909;DHT22;441;51.192;6.788;2023-04-29T15:10:38;19.80;60.70
909;DHT22;441;51.192;6.788;2023-04-29T15:13:05;19.70;60.60
909;DHT22;441;51.192;6.788;2023-04-29T15:15:32;19.70;60.60
909;DHT22;441;51.192;6.788;2023-04-29T15:17:59;19.70;60.60
909;DHT22;441;51.192;6.788;2023-04-29T15:20:26;19.70;60.50
909;DHT22;441;51.192;6.788;2023-04-29T15:22:53;19.70;60.50
909;DHT22;441;51.192;6.788;2023-04-29T15:25:20;19.80;60.70
909;DHT22;441;51.192;6.788;2023-04-29T15:27:48;19.70;60.50
909;DHT22;441;51.192;6.788;2023-04-29T15:30:15;19.80;60.70
909;DHT22;441;51.192;6.788;2023-04-29T15:32:43;19.80;60.70
909;DHT22;441;51.192;6.788;2023-04-29T15:35:10;19.70;60.50
909;DHT22;441;51.192;6.788;2023-04-29T15:37:37;19.80;60.60
909;DHT22;441;51.192;6.788;2023-04-29T15:40:05;19.80;61.30
909;DHT22;441;51.192;6.788;2023-04-29T15:42:32;19.80;61.80
909;DHT22;441;51.192;6.788;2023-04-29T15:45:01;19.80;62.40
909;DHT22;441;51.192;6.788;2023-04-29T15:47:28;19.90;62.80
909;DHT22;441;51.192;6.788;2023-04-29T15:49:55;20.00;62.80
909;DHT22;441;51.192;6.788;2023-04-29T15:52:23;20.00;62.60
909;DHT22;441;51.192;6.788;2023-04-29T15:54:50;20.10;62.70
909;DHT22;441;51.192;6.788;2023-04-29T15:57:17;20.10;62.50
909;DHT22;441;51.192;6.788;2023-04-29T15:59:43;20.20;62.50
909;DHT22;441;51.192;6.788;2023-04-29T16:02:12;20.20;62.20
909;DHT22;441;51.192;6.788;2023-04-29T16:04:39;20.30;62.10
909;DHT22;441;51.192;6.788;2023-04-29T16:07:06;20.30;62.00
909;DHT22;441;51.192;6.788;2023-04-29T16:09:34;20.40;62.00
909;DHT22;441;51.192;6.788;2023-04-29T16:12:01;20.40;62.00
909;DHT22;441;51.192;6.788;2023-04-29T16:14:28;20.50;62.00
909;DHT22;441;51.192;6.788;2023-04-29T16:16:55;20.50;61.90
909;DHT22;441;51.192;6.788;2023-04-29T16:19:24;20.50;62.30
909;DHT22;441;51.192;6.788;2023-04-29T16:21:51;20.60;61.70
909;DHT22;441;51.192;6.788;2023-04-29T16:24:18;20.70;61.40
909;DHT22;441;51.192;6.788;2023-04-29T16:26:45;20.60;61.10
909;DHT22;441;51.192;6.788;2023-04-29T16:29:12;20.60;61.00
909;DHT22;441;51.192;6.788;2023-04-29T16:31:39;20.60;61.30
909;DHT22;441;51.192;6.788;2023-04-29T16:34:07;20.60;61.10
909;DHT22;441;51.192;6.788;2023-04-29T16:36:35;20.60;61.00
909;DHT22;441;51.192;6.788;2023-04-29T16:39:02;20.70;61.20